• Join FlightAware (Why Join?)
  • Login
  • US Flag 
02:20PM EDT


 

Airport Tracker/Info


-or-


 

Live Flight TrackerFlight Track Log ✈ UAL582 ✈ 11-Jul-2013 ✈ CYYZ - KORD

Flight Track Log - Related Links

Times and Time Zones

All times are in EDT time to prevent confusion due to time zone crossing. See the UAL582 flight status page for this flight to view local times or setup timezone preferences in your user account.

Time Position Orientation Groundspeed Altitude Reporting Facility
EDT Latitude Longitude Course Direction KTS MPH feet Rate Location/Type
05:35PM 43.7000 -79.5833 277° West 160 184 2,100  Level Toronto Center
05:36PM 43.7500 -79.5333 36° Northeast 210 242 4,100 2,220 Climbing Toronto Center
05:37PM 43.7014 -79.9832 277° West  Level FlightAware Approximate
05:37PM 43.8000 -79.5833 324° Northwest 270 311 6,600  Level Toronto Center
05:38PM 43.7117 -80.1065 277° West  Level FlightAware Approximate
05:38PM 43.8000 -79.7000 270° West 280 322 7,000  Level Toronto Center
05:39PM 43.7179 -80.2302 277° West  Level FlightAware Approximate
05:39PM 43.8000 -79.8000 270° West 280 322 7,100  Level Toronto Center
05:40PM 43.7291 -80.3534 277° West  Level FlightAware Approximate
05:40PM 43.7500 -79.8833 230° Southwest 290 334 9,700  Level Toronto Center
05:41PM 43.7333 -80.0000 259° West 330 380 11,300 2,400 Climbing Toronto Center
05:42PM 43.7333 -80.1333 270° West 370 426 14,500 3,000 Climbing Toronto Center
05:43PM 43.7333 -80.2833 270° West 370 426 17,300 2,700 Climbing Toronto Center
05:44PM 43.7333 -80.4333 270° West 380 437 19,900 2,400 Climbing Toronto Center
05:45PM 43.7333 -80.6000 270° West 390 449 22,100 1,800 Climbing Toronto Center
05:46PM 43.7000 -80.7333 251° West 410 472 23,600 1,740 Climbing Toronto Center
05:47PM 43.6667 -80.9000 255° West 420 483 25,600 2,040 Climbing Toronto Center
05:48PM 43.6500 -81.0667 262° West 420 483 27,700 1,740 Climbing Toronto Center
05:49PM 43.6500 -81.2167 270° West 420 483 29,100 1,440 Climbing Toronto Center
05:50PM 43.6500 -81.4000 270° West 430 495 30,600 1,440 Climbing Toronto Center
05:51PM 43.6000 -81.5500 245° Southwest 430 495 32,000 1,140 Climbing Toronto Center
05:52PM 43.5667 -81.7000 253° West 420 483 32,900 840 Climbing Toronto Center
05:53PM 43.5167 -81.8333 243° Southwest 430 495 33,700 540 Climbing Toronto Center
05:54PM 43.4667 -82.0000 248° West 440 506 34,000 120 Climbing Toronto Center
05:55PM 43.4167 -82.1500 245° Southwest 440 506 34,000  Level Toronto Center
05:56PM 43.4172 -82.2522 270° West 432 497 34,000  Level Cleveland Center
05:57PM 43.3731 -82.4081 249° West 437 503 34,000  Level Cleveland Center
05:58PM 43.3269 -82.5636 248° West 442 509 34,000  Level Cleveland Center
05:59PM 43.2783 -82.7161 246° West 442 509 34,000  Level Cleveland Center
06:00PM 43.2317 -82.8711 248° West 447 514 34,000  Level Cleveland Center
06:01PM 43.1867 -83.0292 249° West 447 514 34,000 -60 Level Cleveland Center
06:02PM 43.1372 -83.1864 247° West 447 514 33,900 -600 Descending Cleveland Center
06:03PM 43.0900 -83.3408 247° West 447 514 32,900 -960 Descending Cleveland Center
06:04PM 43.0400 -83.5092 248° West 460 529 32,000 -480 Descending Cleveland Center
06:05PM 42.9878 -83.6714 246° West 465 535 32,000  Level Cleveland Center
06:06PM 42.9561 -83.8400 256° West 465 535 32,000  Level Cleveland Center
06:07PM 42.9383 -84.0178 262° West 470 541 32,000  Level Cleveland Center
06:07PM 42.9306 -84.1283 265° West 468 539 32,000  Level Chicago Center
06:08PM 42.9433 -84.2989 276° West 469 540 32,000  Level Chicago Center
06:09PM 42.9647 -84.4675 280° West 455 524 32,000  Level Chicago Center
06:10PM 42.9697 -84.6725 272° West 466 536 32,000  Level Chicago Center
06:11PM 42.9011 -84.8314 240° Southwest 489 563 32,000  Level Chicago Center
06:12PM 42.8453 -85.0000 246° West 491 565 32,000  Level Chicago Center
06:13PM 42.8219 -85.1756 260° West 477 549 32,000 -600 Level Chicago Center
06:14PM 42.8022 -85.3539 261° West 475 547 30,800 -1,800 Descending Chicago Center
06:16PM 42.7822 -85.5261 261° West 467 537 28,400 -2,640 Descending Chicago Center
06:17PM 42.7458 -85.7219 256° West 446 513 25,400 -2,940 Descending Chicago Center
06:18PM 42.7178 -85.8786 256° West 431 496 22,400 -2,520 Descending Chicago Center
06:19PM 42.6897 -86.0308 256° West 416 479 20,300 -1,200 Descending Chicago Center
06:20PM 42.6622 -86.1783 256° West 404 465 20,000 -180 Descending Chicago Center
06:21PM 42.6344 -86.3267 256° West 402 463 20,000  Level Chicago Center
06:22PM 42.6053 -86.4828 256° West 423 487 20,000 -300 Level Chicago Center
06:23PM 42.5753 -86.6403 256° West 430 495 19,400 -1,020 Descending Chicago Center
06:24PM 42.5433 -86.7978 255° West 422 486 17,900 -1,740 Descending Chicago Center
06:25PM 42.4950 -86.9656 249° West 413 475 15,900 -2,040 Descending Chicago Center
06:26PM 42.4556 -87.1031 249° West 397 457 13,700 -2,220 Descending Chicago Center
06:27PM 42.4183 -87.2375 249° West 386 444 11,400 -1,800 Descending Chicago Center
06:28PM 42.3825 -87.3658 249° West 372 428 10,000 -900 Descending Chicago Center
06:29PM 42.3558 -87.4706 251° West 310 357 9,600 -780 Descending Chicago Center
06:30PM 42.2992 -87.5744 234° Southwest 294 338 8,400 -1,080 Descending Chicago Center
06:31PM 42.2339 -87.6439 218° Southwest 295 339 7,400 -720 Descending Chicago Center
06:32PM 42.1700 -87.7131 219° Southwest 295 339 7,000 -240 Descending Chicago Center
06:33PM 42.1053 -87.7786 217° Southwest 293 337 7,000  Level Chicago Center
06:34PM 42.0917 -87.8756 259° West 264 304 7,100  Climbing Chicago Center
06:35PM 42.0833 -87.9833 264° West 218 251 7,100 -300 Level Chicago TRACON
06:36PM 42.0833 -88.0667 270° West 204 235 6,600 -840 Descending Chicago TRACON
06:37PM 42.0911 -88.1297 279° West 201 231 5,500 -1,020 Descending Chicago Center
06:38PM 42.0906 -88.2036 269° West 200 230 4,600 -780 Descending Chicago Center
06:39PM 42.0450 -88.2400 211° Southwest 196 226 4,000 -300 Descending Chicago Center
06:40PM 41.9900 -88.2356 177° South 200 230 4,100  Climbing Chicago Center
06:41PM 41.9692 -88.1831 118° Southeast 204 235 4,100 -420 Level Chicago Center
06:42PM 41.9667 -88.1167 93° East 181 208 3,400 -900 Descending Chicago TRACON
06:43PM 41.9667 -88.0500 90° East 175 201 2,500 -900 Descending Chicago TRACON